sensor_id;sensor_type;location;lat;lon;timestamp;P1;durP1;ratioP1;P2;durP2;ratioP2
609;SDS011;292;48.800;9.216;2023-11-19T00:01:04;4.53;;;2.28;;
609;SDS011;292;48.800;9.216;2023-11-19T00:03:31;2.40;;;2.00;;
609;SDS011;292;48.800;9.216;2023-11-19T00:06:00;6.35;;;1.80;;
609;SDS011;292;48.800;9.216;2023-11-19T00:08:29;3.65;;;2.05;;
609;SDS011;292;48.800;9.216;2023-11-19T00:10:56;4.78;;;2.30;;
609;SDS011;292;48.800;9.216;2023-11-19T00:13:24;10.48;;;2.15;;
609;SDS011;292;48.800;9.216;2023-11-19T00:15:51;4.30;;;2.47;;
609;SDS011;292;48.800;9.216;2023-11-19T00:18:18;4.43;;;2.40;;
609;SDS011;292;48.800;9.216;2023-11-19T00:20:45;3.85;;;2.28;;
609;SDS011;292;48.800;9.216;2023-11-19T00:23:13;4.30;;;2.45;;
609;SDS011;292;48.800;9.216;2023-11-19T00:25:42;5.35;;;2.78;;
609;SDS011;292;48.800;9.216;2023-11-19T00:28:09;5.20;;;2.40;;
609;SDS011;292;48.800;9.216;2023-11-19T00:30:36;8.97;;;3.10;;
609;SDS011;292;48.800;9.216;2023-11-19T00:33:03;3.10;;;2.03;;
609;SDS011;292;48.800;9.216;2023-11-19T00:35:30;3.45;;;2.50;;
609;SDS011;292;48.800;9.216;2023-11-19T00:37:58;5.75;;;2.70;;
609;SDS011;292;48.800;9.216;2023-11-19T00:40:25;6.10;;;2.40;;
609;SDS011;292;48.800;9.216;2023-11-19T00:42:54;5.88;;;2.85;;
609;SDS011;292;48.800;9.216;2023-11-19T00:45:21;2.30;;;1.67;;
609;SDS011;292;48.800;9.216;2023-11-19T00:47:48;9.75;;;2.00;;
609;SDS011;292;48.800;9.216;2023-11-19T00:50:16;3.75;;;2.10;;
609;SDS011;292;48.800;9.216;2023-11-19T00:52:42;2.53;;;1.50;;
609;SDS011;292;48.800;9.216;2023-11-19T00:55:10;3.78;;;1.92;;
609;SDS011;292;48.800;9.216;2023-11-19T00:57:37;4.57;;;2.40;;
609;SDS011;292;48.800;9.216;2023-11-19T01:00:07;2.50;;;1.90;;
609;SDS011;292;48.800;9.216;2023-11-19T01:02:43;2.53;;;1.73;;
609;SDS011;292;48.800;9.216;2023-11-19T01:05:10;4.53;;;2.00;;
609;SDS011;292;48.800;9.216;2023-11-19T01:07:39;3.10;;;1.42;;
609;SDS011;292;48.800;9.216;2023-11-19T01:10:06;5.20;;;1.90;;
609;SDS011;292;48.800;9.216;2023-11-19T01:12:35;4.55;;;1.55;;
609;SDS011;292;48.800;9.216;2023-11-19T01:15:03;2.10;;;1.80;;
609;SDS011;292;48.800;9.216;2023-11-19T01:17:32;2.67;;;1.60;;
609;SDS011;292;48.800;9.216;2023-11-19T01:19:59;2.10;;;1.43;;
609;SDS011;292;48.800;9.216;2023-11-19T01:22:26;1.50;;;1.50;;
609;SDS011;292;48.800;9.216;2023-11-19T01:24:53;2.43;;;1.33;;
609;SDS011;292;48.800;9.216;2023-11-19T01:27:20;2.73;;;1.60;;
609;SDS011;292;48.800;9.216;2023-11-19T01:29:47;2.83;;;1.60;;
609;SDS011;292;48.800;9.216;2023-11-19T01:32:15;2.63;;;1.70;;
609;SDS011;292;48.800;9.216;2023-11-19T01:34:42;2.83;;;1.70;;
609;SDS011;292;48.800;9.216;2023-11-19T01:37:09;2.50;;;1.50;;
609;SDS011;292;48.800;9.216;2023-11-19T01:39:37;2.10;;;1.57;;
609;SDS011;292;48.800;9.216;2023-11-19T01:42:05;4.17;;;1.53;;
609;SDS011;292;48.800;9.216;2023-11-19T01:44:32;5.73;;;1.20;;
609;SDS011;292;48.800;9.216;2023-11-19T01:46:59;1.50;;;1.10;;
609;SDS011;292;48.800;9.216;2023-11-19T01:49:28;3.10;;;1.47;;
609;SDS011;292;48.800;9.216;2023-11-19T01:51:57;8.07;;;1.80;;
609;SDS011;292;48.800;9.216;2023-11-19T01:54:24;3.53;;;1.70;;
609;SDS011;292;48.800;9.216;2023-11-19T01:56:51;3.30;;;1.67;;
609;SDS011;292;48.800;9.216;2023-11-19T01:59:21;2.40;;;1.60;;
609;SDS011;292;48.800;9.216;2023-11-19T02:01:51;3.63;;;1.67;;
609;SDS011;292;48.800;9.216;2023-11-19T02:04:19;2.33;;;1.70;;
609;SDS011;292;48.800;9.216;2023-11-19T02:06:48;2.90;;;1.50;;
609;SDS011;292;48.800;9.216;2023-11-19T02:09:17;4.73;;;2.03;;
609;SDS011;292;48.800;9.216;2023-11-19T02:11:45;2.90;;;2.00;;
609;SDS011;292;48.800;9.216;2023-11-19T02:14:14;2.93;;;1.83;;
609;SDS011;292;48.800;9.216;2023-11-19T02:16:41;3.60;;;1.63;;
609;SDS011;292;48.800;9.216;2023-11-19T02:19:08;4.10;;;1.73;;
609;SDS011;292;48.800;9.216;2023-11-19T02:21:35;3.17;;;1.90;;
609;SDS011;292;48.800;9.216;2023-11-19T02:24:05;4.25;;;1.85;;
609;SDS011;292;48.800;9.216;2023-11-19T02:26:36;4.97;;;2.37;;
609;SDS011;292;48.800;9.216;2023-11-19T02:29:11;2.60;;;2.03;;
609;SDS011;292;48.800;9.216;2023-11-19T02:31:38;2.77;;;2.00;;
609;SDS011;292;48.800;9.216;2023-11-19T02:34:05;3.20;;;1.90;;
609;SDS011;292;48.800;9.216;2023-11-19T02:36:32;2.90;;;1.87;;
609;SDS011;292;48.800;9.216;2023-11-19T02:38:59;3.93;;;1.93;;
609;SDS011;292;48.800;9.216;2023-11-19T02:41:27;6.17;;;2.07;;
609;SDS011;292;48.800;9.216;2023-11-19T02:43:54;5.60;;;2.10;;
609;SDS011;292;48.800;9.216;2023-11-19T02:46:23;1.80;;;1.43;;
609;SDS011;292;48.800;9.216;2023-11-19T02:48:50;4.20;;;2.03;;
609;SDS011;292;48.800;9.216;2023-11-19T02:51:17;3.37;;;1.97;;
609;SDS011;292;48.800;9.216;2023-11-19T02:53:44;3.70;;;2.40;;
609;SDS011;292;48.800;9.216;2023-11-19T02:56:13;3.43;;;2.10;;
609;SDS011;292;48.800;9.216;2023-11-19T02:58:45;3.33;;;2.20;;
609;SDS011;292;48.800;9.216;2023-11-19T03:01:14;3.57;;;1.90;;
609;SDS011;292;48.800;9.216;2023-11-19T03:03:54;5.93;;;2.40;;
609;SDS011;292;48.800;9.216;2023-11-19T03:06:22;2.60;;;2.13;;
609;SDS011;292;48.800;9.216;2023-11-19T03:08:49;4.10;;;2.63;;
609;SDS011;292;48.800;9.216;2023-11-19T03:11:16;7.97;;;2.60;;
609;SDS011;292;48.800;9.216;2023-11-19T03:13:43;4.70;;;2.57;;
609;SDS011;292;48.800;9.216;2023-11-19T03:16:09;3.40;;;2.10;;
609;SDS011;292;48.800;9.216;2023-11-19T03:18:39;5.60;;;2.87;;
609;SDS011;292;48.800;9.216;2023-11-19T03:21:06;5.77;;;2.53;;
609;SDS011;292;48.800;9.216;2023-11-19T03:23:34;4.40;;;2.90;;
609;SDS011;292;48.800;9.216;2023-11-19T03:26:01;5.43;;;2.60;;
609;SDS011;292;48.800;9.216;2023-11-19T03:28:30;3.80;;;2.73;;
609;SDS011;292;48.800;9.216;2023-11-19T03:30:57;4.63;;;2.87;;
609;SDS011;292;48.800;9.216;2023-11-19T03:33:24;4.50;;;2.40;;
609;SDS011;292;48.800;9.216;2023-11-19T03:35:54;5.20;;;2.57;;
609;SDS011;292;48.800;9.216;2023-11-19T03:38:22;5.07;;;2.77;;
609;SDS011;292;48.800;9.216;2023-11-19T03:40:50;6.23;;;2.07;;
609;SDS011;292;48.800;9.216;2023-11-19T03:43:17;3.70;;;2.30;;
609;SDS011;292;48.800;9.216;2023-11-19T03:45:45;3.60;;;2.50;;
609;SDS011;292;48.800;9.216;2023-11-19T03:48:13;7.10;;;2.00;;
609;SDS011;292;48.800;9.216;2023-11-19T03:50:41;4.70;;;2.10;;
609;SDS011;292;48.800;9.216;2023-11-19T03:53:09;3.83;;;2.23;;
609;SDS011;292;48.800;9.216;2023-11-19T03:55:38;3.07;;;1.90;;
609;SDS011;292;48.800;9.216;2023-11-19T03:58:05;3.17;;;2.30;;
609;SDS011;292;48.800;9.216;2023-11-19T04:00:32;4.30;;;2.07;;
609;SDS011;292;48.800;9.216;2023-11-19T04:02:59;5.93;;;1.97;;
609;SDS011;292;48.800;9.216;2023-11-19T04:05:26;2.70;;;1.80;;
609;SDS011;292;48.800;9.216;2023-11-19T04:07:53;3.30;;;2.07;;
609;SDS011;292;48.800;9.216;2023-11-19T04:10:22;2.70;;;1.73;;
609;SDS011;292;48.800;9.216;2023-11-19T04:12:49;2.80;;;1.70;;
609;SDS011;292;48.800;9.216;2023-11-19T04:15:16;2.33;;;1.80;;
609;SDS011;292;48.800;9.216;2023-11-19T04:17:43;1.70;;;1.60;;
609;SDS011;292;48.800;9.216;2023-11-19T04:20:10;2.80;;;1.70;;
609;SDS011;292;48.800;9.216;2023-11-19T04:22:38;1.90;;;1.60;;
609;SDS011;292;48.800;9.216;2023-11-19T04:25:06;1.63;;;1.47;;
609;SDS011;292;48.800;9.216;2023-11-19T04:27:35;2.47;;;1.70;;
609;SDS011;292;48.800;9.216;2023-11-19T04:30:02;1.93;;;1.20;;
609;SDS011;292;48.800;9.216;2023-11-19T04:32:30;1.20;;;0.70;;
609;SDS011;292;48.800;9.216;2023-11-19T04:34:57;1.90;;;0.80;;
609;SDS011;292;48.800;9.216;2023-11-19T04:37:25;0.93;;;0.50;;
609;SDS011;292;48.800;9.216;2023-11-19T04:39:52;0.90;;;0.50;;
609;SDS011;292;48.800;9.216;2023-11-19T04:42:19;0.40;;;0.40;;
609;SDS011;292;48.800;9.216;2023-11-19T04:44:50;1.00;;;0.70;;
609;SDS011;292;48.800;9.216;2023-11-19T04:47:19;1.57;;;0.57;;
609;SDS011;292;48.800;9.216;2023-11-19T04:49:46;0.73;;;0.40;;
609;SDS011;292;48.800;9.216;2023-11-19T04:52:13;0.60;;;0.53;;
609;SDS011;292;48.800;9.216;2023-11-19T04:54:40;0.80;;;0.60;;
609;SDS011;292;48.800;9.216;2023-11-19T04:57:08;1.00;;;0.70;;
609;SDS011;292;48.800;9.216;2023-11-19T04:59:36;3.27;;;1.07;;
609;SDS011;292;48.800;9.216;2023-11-19T05:02:05;1.57;;;0.40;;
609;SDS011;292;48.800;9.216;2023-11-19T05:04:32;1.83;;;0.50;;
609;SDS011;292;48.800;9.216;2023-11-19T05:06:59;0.90;;;0.50;;
609;SDS011;292;48.800;9.216;2023-11-19T05:09:26;0.43;;;0.40;;
609;SDS011;292;48.800;9.216;2023-11-19T05:11:53;0.60;;;0.30;;
609;SDS011;292;48.800;9.216;2023-11-19T05:14:20;0.40;;;0.40;;
609;SDS011;292;48.800;9.216;2023-11-19T05:16:47;0.50;;;0.43;;
609;SDS011;292;48.800;9.216;2023-11-19T05:19:14;0.50;;;0.40;;
609;SDS011;292;48.800;9.216;2023-11-19T05:21:41;0.87;;;0.50;;
609;SDS011;292;48.800;9.216;2023-11-19T05:24:10;2.20;;;0.60;;
609;SDS011;292;48.800;9.216;2023-11-19T05:26:38;0.83;;;0.30;;
609;SDS011;292;48.800;9.216;2023-11-19T05:29:05;2.47;;;1.00;;
609;SDS011;292;48.800;9.216;2023-11-19T05:31:32;2.40;;;0.63;;
609;SDS011;292;48.800;9.216;2023-11-19T05:33:59;1.80;;;0.80;;
609;SDS011;292;48.800;9.216;2023-11-19T05:36:28;0.70;;;0.60;;
609;SDS011;292;48.800;9.216;2023-11-19T05:38:54;1.70;;;0.57;;
609;SDS011;292;48.800;9.216;2023-11-19T05:41:21;0.40;;;0.40;;
609;SDS011;292;48.800;9.216;2023-11-19T05:43:49;0.40;;;0.40;;
609;SDS011;292;48.800;9.216;2023-11-19T05:46:16;1.07;;;0.30;;
609;SDS011;292;48.800;9.216;2023-11-19T05:48:43;0.50;;;0.40;;
609;SDS011;292;48.800;9.216;2023-11-19T05:51:11;0.60;;;0.40;;
609;SDS011;292;48.800;9.216;2023-11-19T05:53:41;1.90;;;0.50;;
609;SDS011;292;48.800;9.216;2023-11-19T05:56:08;0.40;;;0.30;;
609;SDS011;292;48.800;9.216;2023-11-19T05:58:35;1.70;;;0.40;;
609;SDS011;292;48.800;9.216;2023-11-19T06:01:04;0.50;;;0.40;;
609;SDS011;292;48.800;9.216;2023-11-19T06:03:32;0.63;;;0.50;;
609;SDS011;292;48.800;9.216;2023-11-19T06:05:59;1.33;;;0.60;;
609;SDS011;292;48.800;9.216;2023-11-19T06:08:27;1.10;;;0.50;;
609;SDS011;292;48.800;9.216;2023-11-19T06:10:57;0.43;;;0.40;;
609;SDS011;292;48.800;9.216;2023-11-19T06:13:27;0.60;;;0.30;;
609;SDS011;292;48.800;9.216;2023-11-19T06:15:55;0.40;;;0.30;;
609;SDS011;292;48.800;9.216;2023-11-19T06:18:22;0.40;;;0.30;;
609;SDS011;292;48.800;9.216;2023-11-19T06:20:50;0.60;;;0.40;;
609;SDS011;292;48.800;9.216;2023-11-19T06:23:17;5.07;;;0.43;;
609;SDS011;292;48.800;9.216;2023-11-19T06:25:44;0.50;;;0.30;;
609;SDS011;292;48.800;9.216;2023-11-19T06:28:12;0.90;;;0.40;;
609;SDS011;292;48.800;9.216;2023-11-19T06:30:40;0.40;;;0.40;;
609;SDS011;292;48.800;9.216;2023-11-19T06:33:07;0.40;;;0.40;;
609;SDS011;292;48.800;9.216;2023-11-19T06:35:36;2.10;;;0.40;;
609;SDS011;292;48.800;9.216;2023-11-19T06:38:02;0.77;;;0.40;;
609;SDS011;292;48.800;9.216;2023-11-19T06:40:30;1.03;;;0.40;;
609;SDS011;292;48.800;9.216;2023-11-19T06:42:57;1.60;;;0.43;;
609;SDS011;292;48.800;9.216;2023-11-19T06:45:26;0.70;;;0.40;;
609;SDS011;292;48.800;9.216;2023-11-19T06:47:53;0.60;;;0.40;;
609;SDS011;292;48.800;9.216;2023-11-19T06:50:20;1.67;;;0.40;;
609;SDS011;292;48.800;9.216;2023-11-19T06:52:47;0.40;;;0.40;;
609;SDS011;292;48.800;9.216;2023-11-19T06:55:14;0.60;;;0.40;;
609;SDS011;292;48.800;9.216;2023-11-19T06:57:41;4.63;;;0.40;;
609;SDS011;292;48.800;9.216;2023-11-19T07:00:09;0.77;;;0.50;;
609;SDS011;292;48.800;9.216;2023-11-19T07:02:38;0.70;;;0.43;;
609;SDS011;292;48.800;9.216;2023-11-19T07:05:05;1.17;;;0.40;;
609;SDS011;292;48.800;9.216;2023-11-19T07:07:33;0.70;;;0.40;;
609;SDS011;292;48.800;9.216;2023-11-19T07:10:00;0.67;;;0.40;;
609;SDS011;292;48.800;9.216;2023-11-19T07:12:29;0.70;;;0.37;;
609;SDS011;292;48.800;9.216;2023-11-19T07:14:56;0.40;;;0.40;;
609;SDS011;292;48.800;9.216;2023-11-19T07:17:23;1.07;;;0.50;;
609;SDS011;292;48.800;9.216;2023-11-19T07:19:52;0.60;;;0.40;;
609;SDS011;292;48.800;9.216;2023-11-19T07:22:19;2.17;;;0.60;;
609;SDS011;292;48.800;9.216;2023-11-19T07:24:46;0.53;;;0.40;;
609;SDS011;292;48.800;9.216;2023-11-19T07:27:13;0.30;;;0.30;;
609;SDS011;292;48.800;9.216;2023-11-19T07:29:40;0.57;;;0.50;;
609;SDS011;292;48.800;9.216;2023-11-19T07:32:09;3.60;;;0.50;;
609;SDS011;292;48.800;9.216;2023-11-19T07:34:38;0.40;;;0.40;;
609;SDS011;292;48.800;9.216;2023-11-19T07:37:07;0.70;;;0.43;;
609;SDS011;292;48.800;9.216;2023-11-19T07:39:34;0.73;;;0.40;;
609;SDS011;292;48.800;9.216;2023-11-19T07:42:03;0.50;;;0.40;;
609;SDS011;292;48.800;9.216;2023-11-19T07:44:30;0.57;;;0.50;;
609;SDS011;292;48.800;9.216;2023-11-19T07:46:57;0.60;;;0.40;;
609;SDS011;292;48.800;9.216;2023-11-19T07:49:24;0.73;;;0.40;;
609;SDS011;292;48.800;9.216;2023-11-19T07:51:51;2.93;;;0.40;;
609;SDS011;292;48.800;9.216;2023-11-19T07:54:20;11.93;;;0.70;;
609;SDS011;292;48.800;9.216;2023-11-19T07:56:47;0.80;;;0.43;;
609;SDS011;292;48.800;9.216;2023-11-19T07:59:15;1.43;;;0.63;;
609;SDS011;292;48.800;9.216;2023-11-19T08:01:42;1.57;;;0.40;;
609;SDS011;292;48.800;9.216;2023-11-19T08:04:09;5.07;;;0.60;;
609;SDS011;292;48.800;9.216;2023-11-19T08:06:36;0.60;;;0.40;;
609;SDS011;292;48.800;9.216;2023-11-19T08:09:03;0.60;;;0.40;;
609;SDS011;292;48.800;9.216;2023-11-19T08:11:33;0.40;;;0.40;;
609;SDS011;292;48.800;9.216;2023-11-19T08:14:00;0.97;;;0.60;;
609;SDS011;292;48.800;9.216;2023-11-19T08:16:27;1.10;;;0.70;;
609;SDS011;292;48.800;9.216;2023-11-19T08:18:54;0.50;;;0.40;;
609;SDS011;292;48.800;9.216;2023-11-19T08:21:23;0.80;;;0.50;;
609;SDS011;292;48.800;9.216;2023-11-19T08:23:52;2.50;;;0.57;;
609;SDS011;292;48.800;9.216;2023-11-19T08:26:19;1.53;;;0.50;;
609;SDS011;292;48.800;9.216;2023-11-19T08:28:47;0.53;;;0.50;;
609;SDS011;292;48.800;9.216;2023-11-19T08:31:14;1.23;;;0.50;;
609;SDS011;292;48.800;9.216;2023-11-19T08:33:41;0.50;;;0.50;;
609;SDS011;292;48.800;9.216;2023-11-19T08:36:08;2.07;;;0.63;;
609;SDS011;292;48.800;9.216;2023-11-19T08:38:41;2.33;;;0.57;;
609;SDS011;292;48.800;9.216;2023-11-19T08:41:08;1.37;;;0.57;;
609;SDS011;292;48.800;9.216;2023-11-19T08:43:35;0.93;;;0.50;;
609;SDS011;292;48.800;9.216;2023-11-19T08:46:05;0.70;;;0.60;;
609;SDS011;292;48.800;9.216;2023-11-19T08:48:37;1.47;;;0.97;;
609;SDS011;292;48.800;9.216;2023-11-19T08:51:04;0.77;;;0.50;;
609;SDS011;292;48.800;9.216;2023-11-19T08:53:32;1.50;;;0.60;;
609;SDS011;292;48.800;9.216;2023-11-19T08:55:59;0.60;;;0.50;;
609;SDS011;292;48.800;9.216;2023-11-19T08:58:27;1.00;;;0.50;;
609;SDS011;292;48.800;9.216;2023-11-19T09:00:55;1.23;;;0.90;;
609;SDS011;292;48.800;9.216;2023-11-19T09:03:23;0.70;;;0.50;;
609;SDS011;292;48.800;9.216;2023-11-19T09:05:51;1.23;;;0.70;;
609;SDS011;292;48.800;9.216;2023-11-19T09:08:18;2.93;;;0.70;;
609;SDS011;292;48.800;9.216;2023-11-19T09:10:45;0.90;;;0.50;;
609;SDS011;292;48.800;9.216;2023-11-19T09:13:12;0.50;;;0.50;;
609;SDS011;292;48.800;9.216;2023-11-19T09:15:39;2.00;;;0.60;;
609;SDS011;292;48.800;9.216;2023-11-19T09:18:07;0.60;;;0.40;;
609;SDS011;292;48.800;9.216;2023-11-19T09:20:35;1.23;;;0.50;;
609;SDS011;292;48.800;9.216;2023-11-19T09:23:03;0.60;;;0.40;;
609;SDS011;292;48.800;9.216;2023-11-19T09:25:31;1.63;;;0.73;;
609;SDS011;292;48.800;9.216;2023-11-19T09:27:58;1.00;;;0.50;;
609;SDS011;292;48.800;9.216;2023-11-19T09:30:25;0.73;;;0.60;;
609;SDS011;292;48.800;9.216;2023-11-19T09:32:52;1.00;;;0.70;;
609;SDS011;292;48.800;9.216;2023-11-19T09:35:19;0.40;;;0.40;;
609;SDS011;292;48.800;9.216;2023-11-19T09:37:47;2.90;;;0.90;;
609;SDS011;292;48.800;9.216;2023-11-19T09:40:14;1.43;;;0.80;;
609;SDS011;292;48.800;9.216;2023-11-19T09:42:43;2.23;;;0.50;;
609;SDS011;292;48.800;9.216;2023-11-19T09:45:12;0.90;;;0.70;;
609;SDS011;292;48.800;9.216;2023-11-19T09:47:42;0.80;;;0.50;;
609;SDS011;292;48.800;9.216;2023-11-19T09:50:12;1.40;;;0.73;;
609;SDS011;292;48.800;9.216;2023-11-19T09:52:42;1.23;;;0.77;;
609;SDS011;292;48.800;9.216;2023-11-19T09:55:11;1.60;;;0.63;;
609;SDS011;292;48.800;9.216;2023-11-19T09:57:39;1.27;;;0.70;;
609;SDS011;292;48.800;9.216;2023-11-19T10:00:14;1.63;;;0.60;;
609;SDS011;292;48.800;9.216;2023-11-19T10:02:44;1.37;;;0.60;;
609;SDS011;292;48.800;9.216;2023-11-19T10:05:12;5.23;;;0.60;;
609;SDS011;292;48.800;9.216;2023-11-19T10:07:39;1.83;;;0.70;;
609;SDS011;292;48.800;9.216;2023-11-19T10:10:08;3.07;;;1.03;;
609;SDS011;292;48.800;9.216;2023-11-19T10:12:40;3.70;;;0.70;;
609;SDS011;292;48.800;9.216;2023-11-19T10:15:07;2.30;;;0.70;;
609;SDS011;292;48.800;9.216;2023-11-19T10:17:43;2.73;;;0.60;;
609;SDS011;292;48.800;9.216;2023-11-19T10:20:10;1.93;;;0.80;;
609;SDS011;292;48.800;9.216;2023-11-19T10:22:37;0.77;;;0.70;;
609;SDS011;292;48.800;9.216;2023-11-19T10:25:04;2.13;;;0.63;;
609;SDS011;292;48.800;9.216;2023-11-19T10:27:48;2.10;;;0.60;;
609;SDS011;292;48.800;9.216;2023-11-19T10:30:17;5.33;;;0.77;;
609;SDS011;292;48.800;9.216;2023-11-19T10:32:44;2.53;;;1.03;;
609;SDS011;292;48.800;9.216;2023-11-19T10:35:11;3.80;;;0.60;;
609;SDS011;292;48.800;9.216;2023-11-19T10:37:38;1.80;;;0.90;;
609;SDS011;292;48.800;9.216;2023-11-19T10:40:06;1.43;;;0.70;;
609;SDS011;292;48.800;9.216;2023-11-19T10:42:35;3.17;;;0.80;;
609;SDS011;292;48.800;9.216;2023-11-19T10:45:05;2.40;;;1.23;;
609;SDS011;292;48.800;9.216;2023-11-19T10:47:48;3.30;;;1.77;;
609;SDS011;292;48.800;9.216;2023-11-19T10:50:17;1.80;;;1.00;;
609;SDS011;292;48.800;9.216;2023-11-19T10:52:45;1.20;;;1.00;;
609;SDS011;292;48.800;9.216;2023-11-19T10:55:14;3.40;;;1.13;;
609;SDS011;292;48.800;9.216;2023-11-19T10:57:44;4.20;;;1.87;;
609;SDS011;292;48.800;9.216;2023-11-19T11:00:17;2.10;;;1.10;;
609;SDS011;292;48.800;9.216;2023-11-19T11:02:55;1.43;;;0.50;;
609;SDS011;292;48.800;9.216;2023-11-19T11:05:26;4.40;;;1.00;;
609;SDS011;292;48.800;9.216;2023-11-19T11:07:55;0.90;;;0.53;;
609;SDS011;292;48.800;9.216;2023-11-19T11:10:23;2.40;;;1.10;;
609;SDS011;292;48.800;9.216;2023-11-19T11:12:53;2.83;;;1.23;;
609;SDS011;292;48.800;9.216;2023-11-19T11:15:25;1.20;;;0.77;;
609;SDS011;292;48.800;9.216;2023-11-19T11:17:56;3.20;;;1.03;;
609;SDS011;292;48.800;9.216;2023-11-19T11:20:26;2.93;;;0.50;;
609;SDS011;292;48.800;9.216;2023-11-19T11:23:04;2.83;;;0.60;;
609;SDS011;292;48.800;9.216;2023-11-19T11:26:09;2.00;;;0.60;;
609;SDS011;292;48.800;9.216;2023-11-19T11:28:57;1.43;;;0.60;;
609;SDS011;292;48.800;9.216;2023-11-19T11:31:35;2.20;;;1.17;;
609;SDS011;292;48.800;9.216;2023-11-19T11:34:19;1.73;;;0.73;;
609;SDS011;292;48.800;9.216;2023-11-19T11:37:05;2.87;;;0.73;;
609;SDS011;292;48.800;9.216;2023-11-19T11:39:39;1.17;;;0.63;;
609;SDS011;292;48.800;9.216;2023-11-19T11:45:00;2.03;;;0.50;;
609;SDS011;292;48.800;9.216;2023-11-19T11:50:32;1.33;;;0.57;;
609;SDS011;292;48.800;9.216;2023-11-19T11:53:15;7.67;;;1.00;;
609;SDS011;292;48.800;9.216;2023-11-19T11:55:54;2.20;;;0.60;;
609;SDS011;292;48.800;9.216;2023-11-19T11:58:36;2.87;;;0.87;;
609;SDS011;292;48.800;9.216;2023-11-19T12:01:07;6.10;;;1.13;;
609;SDS011;292;48.800;9.216;2023-11-19T12:03:34;2.03;;;0.83;;
609;SDS011;292;48.800;9.216;2023-11-19T12:06:07;0.70;;;0.60;;
609;SDS011;292;48.800;9.216;2023-11-19T12:08:35;4.00;;;1.40;;
609;SDS011;292;48.800;9.216;2023-11-19T12:11:02;2.83;;;0.70;;
609;SDS011;292;48.800;9.216;2023-11-19T12:13:42;1.53;;;0.80;;
609;SDS011;292;48.800;9.216;2023-11-19T12:16:15;1.90;;;0.70;;
609;SDS011;292;48.800;9.216;2023-11-19T12:18:42;3.97;;;0.60;;
609;SDS011;292;48.800;9.216;2023-11-19T12:21:11;2.17;;;0.70;;
609;SDS011;292;48.800;9.216;2023-11-19T12:23:53;1.30;;;0.57;;
609;SDS011;292;48.800;9.216;2023-11-19T12:29:06;1.63;;;0.67;;
609;SDS011;292;48.800;9.216;2023-11-19T12:31:33;1.90;;;0.40;;
609;SDS011;292;48.800;9.216;2023-11-19T12:34:08;10.27;;;1.00;;
609;SDS011;292;48.800;9.216;2023-11-19T12:36:42;1.83;;;0.67;;
609;SDS011;292;48.800;9.216;2023-11-19T12:39:09;5.87;;;1.20;;
609;SDS011;292;48.800;9.216;2023-11-19T12:41:50;3.50;;;1.57;;
609;SDS011;292;48.800;9.216;2023-11-19T12:44:19;4.37;;;0.80;;
609;SDS011;292;48.800;9.216;2023-11-19T12:46:58;1.60;;;0.60;;
609;SDS011;292;48.800;9.216;2023-11-19T12:49:28;2.50;;;1.00;;
609;SDS011;292;48.800;9.216;2023-11-19T12:51:56;1.67;;;0.87;;
609;SDS011;292;48.800;9.216;2023-11-19T12:54:33;2.20;;;0.87;;
609;SDS011;292;48.800;9.216;2023-11-19T12:57:02;1.13;;;0.70;;
609;SDS011;292;48.800;9.216;2023-11-19T12:59:30;1.63;;;0.70;;
609;SDS011;292;48.800;9.216;2023-11-19T13:01:57;3.27;;;0.97;;
609;SDS011;292;48.800;9.216;2023-11-19T13:04:27;1.27;;;0.60;;
609;SDS011;292;48.800;9.216;2023-11-19T13:06:57;2.10;;;0.70;;
609;SDS011;292;48.800;9.216;2023-11-19T13:09:24;2.70;;;0.60;;
609;SDS011;292;48.800;9.216;2023-11-19T13:11:52;1.93;;;0.70;;
609;SDS011;292;48.800;9.216;2023-11-19T13:14:19;1.70;;;0.70;;
609;SDS011;292;48.800;9.216;2023-11-19T13:16:49;1.53;;;0.70;;
609;SDS011;292;48.800;9.216;2023-11-19T13:19:19;1.00;;;0.53;;
609;SDS011;292;48.800;9.216;2023-11-19T13:21:48;1.50;;;0.47;;
609;SDS011;292;48.800;9.216;2023-11-19T13:24:17;2.60;;;0.63;;
609;SDS011;292;48.800;9.216;2023-11-19T13:26:43;2.20;;;0.70;;
609;SDS011;292;48.800;9.216;2023-11-19T13:29:11;2.33;;;0.73;;
609;SDS011;292;48.800;9.216;2023-11-19T13:31:38;2.87;;;0.60;;
609;SDS011;292;48.800;9.216;2023-11-19T13:34:05;1.63;;;0.70;;
609;SDS011;292;48.800;9.216;2023-11-19T13:36:33;1.63;;;0.50;;
609;SDS011;292;48.800;9.216;2023-11-19T13:39:00;3.07;;;0.70;;
609;SDS011;292;48.800;9.216;2023-11-19T13:41:29;1.63;;;0.60;;
609;SDS011;292;48.800;9.216;2023-11-19T13:43:56;1.70;;;0.63;;
609;SDS011;292;48.800;9.216;2023-11-19T13:46:23;3.47;;;0.87;;
609;SDS011;292;48.800;9.216;2023-11-19T13:48:50;1.57;;;0.60;;
609;SDS011;292;48.800;9.216;2023-11-19T13:51:17;1.30;;;0.70;;
609;SDS011;292;48.800;9.216;2023-11-19T13:53:45;1.43;;;0.70;;
609;SDS011;292;48.800;9.216;2023-11-19T13:56:12;2.43;;;0.60;;
609;SDS011;292;48.800;9.216;2023-11-19T13:58:40;1.30;;;0.63;;
609;SDS011;292;48.800;9.216;2023-11-19T14:01:07;1.83;;;0.50;;
609;SDS011;292;48.800;9.216;2023-11-19T14:03:34;1.67;;;0.70;;
609;SDS011;292;48.800;9.216;2023-11-19T14:06:01;1.73;;;0.60;;
609;SDS011;292;48.800;9.216;2023-11-19T14:08:28;2.10;;;0.67;;
609;SDS011;292;48.800;9.216;2023-11-19T14:10:55;0.60;;;0.50;;
609;SDS011;292;48.800;9.216;2023-11-19T14:13:23;0.77;;;0.50;;
609;SDS011;292;48.800;9.216;2023-11-19T14:15:52;3.13;;;0.93;;
609;SDS011;292;48.800;9.216;2023-11-19T14:18:19;1.77;;;0.67;;
609;SDS011;292;48.800;9.216;2023-11-19T14:20:46;1.83;;;0.83;;
609;SDS011;292;48.800;9.216;2023-11-19T14:23:13;1.47;;;0.60;;
609;SDS011;292;48.800;9.216;2023-11-19T14:25:40;1.03;;;0.50;;
609;SDS011;292;48.800;9.216;2023-11-19T14:28:07;2.57;;;0.80;;
609;SDS011;292;48.800;9.216;2023-11-19T14:30:34;7.10;;;0.80;;
609;SDS011;292;48.800;9.216;2023-11-19T14:33:03;1.33;;;0.60;;
609;SDS011;292;48.800;9.216;2023-11-19T14:35:30;5.43;;;0.90;;
609;SDS011;292;48.800;9.216;2023-11-19T14:37:57;1.07;;;0.60;;
609;SDS011;292;48.800;9.216;2023-11-19T14:40:24;2.70;;;0.90;;
609;SDS011;292;48.800;9.216;2023-11-19T14:42:52;1.80;;;0.70;;
609;SDS011;292;48.800;9.216;2023-11-19T14:45:19;6.43;;;0.90;;
609;SDS011;292;48.800;9.216;2023-11-19T14:47:47;2.97;;;1.00;;
609;SDS011;292;48.800;9.216;2023-11-19T14:50:15;2.67;;;0.90;;
609;SDS011;292;48.800;9.216;2023-11-19T14:52:42;1.27;;;0.90;;
609;SDS011;292;48.800;9.216;2023-11-19T14:55:09;3.27;;;0.87;;
609;SDS011;292;48.800;9.216;2023-11-19T14:57:37;2.80;;;0.90;;
609;SDS011;292;48.800;9.216;2023-11-19T15:00:07;5.23;;;1.27;;
609;SDS011;292;48.800;9.216;2023-11-19T15:02:38;4.77;;;0.90;;
609;SDS011;292;48.800;9.216;2023-11-19T15:05:06;3.50;;;0.90;;
609;SDS011;292;48.800;9.216;2023-11-19T15:07:36;4.27;;;0.90;;
609;SDS011;292;48.800;9.216;2023-11-19T15:10:03;2.97;;;0.60;;
609;SDS011;292;48.800;9.216;2023-11-19T15:12:34;2.87;;;0.60;;
609;SDS011;292;48.800;9.216;2023-11-19T15:15:05;3.90;;;1.10;;
609;SDS011;292;48.800;9.216;2023-11-19T15:17:34;1.30;;;0.70;;
609;SDS011;292;48.800;9.216;2023-11-19T15:20:02;1.43;;;0.63;;
609;SDS011;292;48.800;9.216;2023-11-19T15:22:30;1.97;;;0.60;;
609;SDS011;292;48.800;9.216;2023-11-19T15:24:59;0.90;;;0.50;;
609;SDS011;292;48.800;9.216;2023-11-19T15:27:26;1.70;;;0.63;;
609;SDS011;292;48.800;9.216;2023-11-19T15:29:54;0.80;;;0.50;;
609;SDS011;292;48.800;9.216;2023-11-19T15:32:20;3.20;;;0.70;;
609;SDS011;292;48.800;9.216;2023-11-19T15:34:47;3.00;;;0.90;;
609;SDS011;292;48.800;9.216;2023-11-19T15:37:14;5.27;;;0.73;;
609;SDS011;292;48.800;9.216;2023-11-19T15:39:41;1.70;;;0.60;;
609;SDS011;292;48.800;9.216;2023-11-19T15:42:11;1.23;;;0.70;;
609;SDS011;292;48.800;9.216;2023-11-19T15:44:38;1.07;;;0.50;;
609;SDS011;292;48.800;9.216;2023-11-19T15:47:05;1.47;;;0.73;;
609;SDS011;292;48.800;9.216;2023-11-19T15:49:32;4.13;;;1.13;;
609;SDS011;292;48.800;9.216;2023-11-19T15:52:01;0.70;;;0.70;;
609;SDS011;292;48.800;9.216;2023-11-19T15:54:29;1.70;;;0.67;;
609;SDS011;292;48.800;9.216;2023-11-19T15:57:02;4.77;;;0.90;;
609;SDS011;292;48.800;9.216;2023-11-19T15:59:30;2.70;;;0.67;;
609;SDS011;292;48.800;9.216;2023-11-19T16:01:57;27.73;;;17.47;;